createdAt,value
2019-03-27T00:01:46.546Z,7.10
2019-03-27T00:02:46.457Z,7.10
2019-03-27T00:03:46.387Z,7.10
2019-03-27T00:04:46.475Z,6.50
2019-03-27T00:05:46.427Z,6.50
2019-03-27T00:06:46.480Z,6.50
2019-03-27T00:07:46.473Z,6.50
2019-03-27T00:08:46.412Z,6.50
2019-03-27T00:09:46.422Z,6.50
2019-03-27T00:10:46.510Z,6.50
2019-03-27T00:11:46.493Z,6.50
2019-03-27T00:12:46.486Z,6.50
2019-03-27T00:13:46.441Z,6.50
2019-03-27T00:14:46.470Z,8.00
2019-03-27T00:15:46.326Z,8.00
2019-03-27T00:16:46.342Z,8.00
2019-03-27T00:17:46.400Z,8.00
2019-03-27T00:18:46.449Z,8.00
2019-03-27T00:19:46.354Z,8.00
2019-03-27T00:20:46.354Z,8.00
2019-03-27T00:21:46.394Z,8.00
2019-03-27T00:22:46.347Z,8.00
2019-03-27T00:23:46.432Z,8.00
2019-03-27T00:24:46.485Z,5.40
2019-03-27T00:25:46.427Z,5.40
2019-03-27T00:26:46.492Z,5.40
2019-03-27T00:27:46.419Z,5.40
2019-03-27T00:28:46.484Z,5.40
2019-03-27T00:29:46.489Z,5.40
2019-03-27T00:30:46.417Z,5.40
2019-03-27T00:31:46.487Z,5.40
2019-03-27T00:32:46.501Z,5.40
2019-03-27T00:33:46.498Z,5.40
2019-03-27T00:34:46.485Z,6.10
2019-03-27T00:35:46.492Z,6.10
2019-03-27T00:36:46.429Z,6.10
2019-03-27T00:37:46.496Z,6.10
2019-03-27T00:38:46.506Z,6.10
2019-03-27T00:39:46.421Z,6.10
2019-03-27T00:40:46.492Z,6.10
2019-03-27T00:41:46.492Z,6.10
2019-03-27T00:42:46.439Z,6.10
2019-03-27T00:43:46.503Z,6.10
2019-03-27T00:44:46.362Z,5.00
2019-03-27T00:45:46.365Z,5.00
2019-03-27T00:46:46.480Z,5.00
2019-03-27T00:47:46.483Z,5.00
2019-03-27T00:48:46.481Z,5.00
2019-03-27T00:49:46.486Z,5.00
2019-03-27T00:50:46.488Z,5.00
2019-03-27T00:51:46.486Z,5.00
2019-03-27T00:52:46.432Z,5.00
2019-03-27T00:53:46.461Z,5.00
2019-03-27T00:54:46.512Z,5.50
2019-03-27T00:55:46.503Z,5.50
2019-03-27T00:56:46.447Z,5.50
2019-03-27T00:57:46.504Z,5.50
2019-03-27T00:58:46.504Z,5.50
2019-03-27T00:59:46.450Z,5.50
2019-03-27T01:00:46.454Z,5.50
2019-03-27T01:01:46.435Z,5.50
2019-03-27T01:02:46.506Z,5.50
2019-03-27T01:03:46.442Z,5.50
2019-03-27T01:04:46.511Z,5.60
2019-03-27T01:05:46.458Z,5.60
2019-03-27T01:06:46.442Z,5.60
2019-03-27T01:07:46.511Z,5.60
2019-03-27T01:08:46.517Z,5.60
2019-03-27T01:09:46.459Z,5.60
2019-03-27T01:10:46.464Z,5.60
2019-03-27T01:11:46.457Z,5.60
2019-03-27T01:12:46.538Z,5.60
2019-03-27T01:13:46.543Z,5.60
2019-03-27T01:14:46.522Z,5.30
2019-03-27T01:15:46.463Z,5.30
2019-03-27T01:16:46.456Z,5.30
2019-03-27T01:17:46.459Z,5.30
2019-03-27T01:18:46.464Z,5.30
2019-03-27T01:19:46.520Z,5.30
2019-03-27T01:20:46.464Z,5.30
2019-03-27T01:21:46.470Z,5.30
2019-03-27T01:22:46.454Z,5.30
2019-03-27T01:23:46.524Z,5.30
2019-03-27T01:24:46.418Z,6.60
2019-03-27T01:25:46.475Z,6.60
2019-03-27T01:26:46.472Z,6.60
2019-03-27T01:27:46.540Z,6.60
2019-03-27T01:28:46.547Z,6.60
2019-03-27T01:29:46.469Z,6.60
2019-03-27T01:30:46.537Z,6.60
2019-03-27T01:31:46.556Z,6.60
2019-03-27T01:32:46.549Z,6.60
2019-03-27T01:33:46.496Z,6.60
2019-03-27T01:34:46.461Z,6.40
2019-03-27T01:35:46.542Z,6.40
2019-03-27T01:36:46.535Z,6.40
2019-03-27T01:37:46.478Z,6.40
2019-03-27T01:38:46.541Z,6.40
2019-03-27T01:39:46.535Z,6.40
2019-03-27T01:40:46.537Z,6.40
2019-03-27T01:41:46.479Z,6.40
2019-03-27T01:42:46.583Z,6.40
2019-03-27T01:43:46.475Z,6.40
2019-03-27T01:44:46.528Z,6.40
2019-03-27T01:45:52.928Z,6.40
2019-03-27T01:46:46.458Z,6.40
2019-03-27T01:47:46.434Z,6.40
2019-03-27T01:48:46.435Z,6.40
2019-03-27T01:49:46.480Z,6.40
2019-03-27T01:50:46.481Z,6.40
2019-03-27T01:51:46.434Z,6.40
2019-03-27T01:52:46.414Z,6.40
2019-03-27T01:53:46.468Z,6.40
2019-03-27T01:54:46.482Z,5.60
2019-03-27T01:55:46.476Z,5.60
2019-03-27T01:56:46.547Z,5.60
2019-03-27T01:57:46.547Z,5.60
2019-03-27T01:58:46.496Z,5.60
2019-03-27T01:59:46.498Z,5.60
2019-03-27T02:00:46.492Z,5.60
2019-03-27T02:01:46.553Z,5.60
2019-03-27T02:02:46.489Z,5.60
2019-03-27T02:03:46.545Z,5.60
2019-03-27T02:04:46.541Z,5.10
2019-03-27T02:05:46.482Z,5.10
2019-03-27T02:06:46.475Z,5.10
2019-03-27T02:07:46.543Z,5.10
2019-03-27T02:08:46.472Z,5.10
2019-03-27T02:09:46.473Z,5.10
2019-03-27T02:10:46.561Z,5.10
2019-03-27T02:11:46.479Z,5.10
2019-03-27T02:12:46.551Z,5.10
2019-03-27T02:13:46.512Z,5.10
2019-03-27T02:14:46.547Z,4.60
2019-03-27T02:15:46.462Z,4.60
2019-03-27T02:16:46.548Z,4.60
2019-03-27T02:17:46.512Z,4.60
2019-03-27T02:18:46.549Z,4.60
2019-03-27T02:19:46.503Z,4.60
2019-03-27T02:20:46.550Z,4.60
2019-03-27T02:21:46.549Z,4.60
2019-03-27T02:22:46.486Z,4.60
2019-03-27T02:23:46.438Z,4.60
2019-03-27T02:24:46.512Z,5.40
2019-03-27T02:25:46.505Z,5.40
2019-03-27T02:26:46.512Z,5.40
2019-03-27T02:27:46.496Z,5.40
2019-03-27T02:28:46.499Z,5.40
2019-03-27T02:29:46.571Z,5.40
2019-03-27T02:30:46.582Z,5.40
2019-03-27T02:31:46.563Z,5.40
2019-03-27T02:32:46.535Z,5.40
2019-03-27T02:33:46.508Z,5.40
2019-03-27T02:34:46.521Z,6.70
2019-03-27T02:35:46.528Z,6.70
2019-03-27T02:36:46.476Z,6.70
2019-03-27T02:37:46.541Z,6.70
2019-03-27T02:38:46.605Z,6.70
2019-03-27T02:39:46.516Z,6.70
2019-03-27T02:40:46.593Z,6.70
2019-03-27T02:41:46.592Z,6.70
2019-03-27T02:42:46.599Z,6.70
2019-03-27T02:43:46.554Z,6.70
2019-03-27T02:44:46.534Z,6.70
2019-03-27T02:45:46.514Z,4.80
2019-03-27T02:46:46.526Z,4.80
2019-03-27T02:47:46.526Z,4.80
2019-03-27T02:48:46.596Z,4.80
2019-03-27T02:49:46.544Z,4.80
2019-03-27T02:50:46.595Z,4.80
2019-03-27T02:51:46.528Z,4.80
2019-03-27T02:52:46.527Z,4.80
2019-03-27T02:53:46.591Z,4.80
2019-03-27T02:54:46.519Z,4.80
2019-03-27T02:55:46.469Z,6.00
2019-03-27T02:56:46.543Z,6.00
2019-03-27T02:57:46.491Z,6.00
2019-03-27T02:58:46.534Z,6.00
2019-03-27T02:59:46.576Z,6.00
2019-03-27T03:00:46.439Z,6.00
2019-03-27T03:01:48.172Z,6.00
2019-03-27T03:02:46.558Z,6.00
2019-03-27T03:03:46.493Z,6.00
2019-03-27T03:04:46.480Z,6.00
2019-03-27T03:05:46.774Z,5.70
2019-03-27T03:06:46.626Z,5.70
2019-03-27T03:07:46.559Z,5.70
2019-03-27T03:08:46.493Z,5.70
2019-03-27T03:09:46.555Z,5.70
2019-03-27T03:10:46.579Z,5.70
2019-03-27T03:11:46.549Z,5.70
2019-03-27T03:12:46.616Z,5.70
2019-03-27T03:13:46.594Z,5.70
2019-03-27T03:14:46.497Z,5.70
2019-03-27T03:15:46.563Z,5.90
2019-03-27T03:16:46.613Z,5.90
2019-03-27T03:17:46.583Z,5.90
2019-03-27T03:18:46.554Z,5.90
2019-03-27T03:19:46.557Z,5.90
2019-03-27T03:20:46.494Z,5.90
2019-03-27T03:21:46.556Z,5.90
2019-03-27T03:22:46.631Z,5.90
2019-03-27T03:23:46.565Z,5.90
2019-03-27T03:24:46.616Z,5.90
2019-03-27T03:25:46.553Z,5.60
2019-03-27T03:26:50.497Z,5.60
2019-03-27T03:27:46.610Z,5.60
2019-03-27T03:28:46.616Z,5.60
2019-03-27T03:29:46.545Z,5.60
2019-03-27T03:30:46.625Z,5.60
2019-03-27T03:31:46.626Z,5.60
2019-03-27T03:32:46.625Z,5.60
2019-03-27T03:33:46.616Z,5.60
2019-03-27T03:34:46.690Z,5.60
2019-03-27T03:35:46.597Z,4.80
2019-03-27T03:36:46.609Z,4.80
2019-03-27T03:37:46.585Z,4.80
2019-03-27T03:38:46.558Z,4.80
2019-03-27T03:39:46.606Z,4.80
2019-03-27T03:40:46.646Z,4.80
2019-03-27T03:41:46.599Z,4.80
2019-03-27T03:42:46.606Z,4.80
2019-03-27T03:43:46.589Z,4.80
2019-03-27T03:44:46.600Z,4.80
2019-03-27T03:45:46.574Z,5.60
2019-03-27T03:46:58.814Z,5.60
2019-03-27T03:47:46.635Z,5.60
2019-03-27T03:48:46.565Z,5.60
2019-03-27T03:49:46.518Z,5.60
2019-03-27T03:50:46.674Z,5.60
2019-03-27T03:51:46.636Z,5.60
2019-03-27T03:52:46.575Z,5.60
2019-03-27T03:53:46.646Z,5.60
2019-03-27T03:54:46.635Z,5.60
2019-03-27T03:55:46.666Z,5.90
2019-03-27T03:56:46.595Z,5.90
2019-03-27T03:57:46.828Z,5.90
2019-03-27T03:58:46.648Z,5.90
2019-03-27T03:59:46.584Z,5.90
2019-03-27T04:00:46.661Z,5.90
2019-03-27T04:01:46.587Z,5.90
2019-03-27T04:02:46.630Z,5.90
2019-03-27T04:03:46.588Z,5.90
2019-03-27T04:04:46.599Z,5.90
2019-03-27T04:05:46.642Z,5.90
2019-03-27T04:06:46.646Z,5.90
2019-03-27T04:07:46.534Z,5.90
2019-03-27T04:08:46.588Z,5.90
2019-03-27T04:09:46.673Z,5.90
2019-03-27T04:10:46.643Z,5.90
2019-03-27T04:11:46.572Z,5.90
2019-03-27T04:12:46.594Z,5.90
2019-03-27T04:13:46.647Z,5.90
2019-03-27T04:14:46.660Z,5.90
2019-03-27T04:15:46.597Z,6.30
2019-03-27T04:16:46.650Z,6.30
2019-03-27T04:17:46.659Z,6.30
2019-03-27T04:18:46.651Z,6.30
2019-03-27T04:19:46.591Z,6.30
2019-03-27T04:20:46.599Z,6.30
2019-03-27T04:21:46.657Z,6.30
2019-03-27T04:22:46.650Z,6.30
2019-03-27T04:23:46.657Z,6.30
2019-03-27T04:24:46.546Z,6.30
2019-03-27T04:26:07.926Z,6.60
2019-03-27T04:26:46.592Z,6.60
2019-03-27T04:27:46.585Z,6.60
2019-03-27T04:28:46.661Z,6.60
2019-03-27T04:29:46.628Z,6.60
2019-03-27T04:30:46.601Z,6.60
2019-03-27T04:31:46.586Z,6.60
2019-03-27T04:32:46.625Z,6.60
2019-03-27T04:33:46.658Z,6.60
2019-03-27T04:34:47.417Z,6.60
2019-03-27T04:35:46.725Z,5.50
2019-03-27T04:36:46.609Z,5.50
2019-03-27T04:37:46.594Z,5.50
2019-03-27T04:38:46.658Z,5.50
2019-03-27T04:39:46.662Z,5.50
2019-03-27T04:40:46.593Z,5.50
2019-03-27T04:41:46.606Z,5.50
2019-03-27T04:42:46.563Z,5.50
2019-03-27T04:43:46.595Z,5.50
2019-03-27T04:44:46.662Z,5.50
2019-03-27T04:45:46.585Z,6.30
2019-03-27T04:46:46.666Z,6.30
2019-03-27T04:47:46.592Z,6.30
2019-03-27T04:48:46.662Z,6.30
2019-03-27T04:49:46.590Z,6.30
2019-03-27T04:50:46.662Z,6.30
2019-03-27T04:51:46.658Z,6.30
2019-03-27T04:52:46.659Z,6.30
2019-03-27T04:53:46.597Z,6.30
2019-03-27T04:54:46.664Z,6.30
2019-03-27T04:55:46.618Z,5.50
2019-03-27T04:56:46.673Z,5.50
2019-03-27T04:57:46.632Z,5.50
2019-03-27T04:58:46.686Z,5.50
2019-03-27T04:59:46.688Z,5.50
2019-03-27T05:00:46.687Z,5.50
2019-03-27T05:01:46.606Z,5.50
2019-03-27T05:02:46.679Z,5.50
2019-03-27T05:03:46.694Z,5.50
2019-03-27T05:04:46.615Z,5.50
2019-03-27T05:05:46.670Z,6.10
2019-03-27T05:06:46.599Z,6.10
2019-03-27T05:07:46.598Z,6.10
2019-03-27T05:08:46.612Z,6.10
2019-03-27T05:09:46.613Z,6.10
2019-03-27T05:10:46.674Z,6.10
2019-03-27T05:11:46.613Z,6.10
2019-03-27T05:12:46.611Z,6.10
2019-03-27T05:13:46.676Z,6.10
2019-03-27T05:14:46.723Z,6.10
2019-03-27T05:15:46.689Z,6.60
2019-03-27T05:16:46.629Z,6.60
2019-03-27T05:17:46.758Z,6.60
2019-03-27T05:18:46.697Z,6.60
2019-03-27T05:19:46.641Z,6.60
2019-03-27T05:20:46.708Z,6.60
2019-03-27T05:21:46.643Z,6.60
2019-03-27T05:22:46.652Z,6.60
2019-03-27T05:23:46.705Z,6.60
2019-03-27T05:24:46.701Z,6.60
2019-03-27T05:25:46.638Z,6.80
2019-03-27T05:26:46.626Z,6.80
2019-03-27T05:27:46.692Z,6.80
2019-03-27T05:28:46.697Z,6.80
2019-03-27T05:29:46.693Z,6.80
2019-03-27T05:30:46.701Z,6.80
2019-03-27T05:31:46.633Z,6.80
2019-03-27T05:32:46.696Z,6.80
2019-03-27T05:33:46.629Z,6.80
2019-03-27T05:34:46.759Z,6.80
2019-03-27T05:35:46.701Z,8.10
2019-03-27T05:36:46.678Z,8.10
2019-03-27T05:37:46.700Z,8.10
2019-03-27T05:38:46.662Z,8.10
2019-03-27T05:39:46.705Z,8.10
2019-03-27T05:40:46.632Z,8.10
2019-03-27T05:41:46.665Z,8.10
2019-03-27T05:42:59.734Z,8.10
2019-03-27T05:43:46.633Z,8.10
2019-03-27T05:44:46.708Z,8.10
2019-03-27T05:45:46.643Z,8.40
2019-03-27T05:46:46.683Z,8.40
2019-03-27T05:47:58.958Z,8.40
2019-03-27T05:48:46.624Z,8.40
2019-03-27T05:49:46.639Z,8.40
2019-03-27T05:50:46.694Z,8.40
2019-03-27T05:51:46.611Z,8.40
2019-03-27T05:52:46.703Z,8.40
2019-03-27T05:53:46.695Z,8.40
2019-03-27T05:54:46.633Z,8.40
2019-03-27T05:55:46.707Z,6.70
2019-03-27T05:56:46.633Z,6.70
2019-03-27T05:57:46.641Z,6.70
2019-03-27T05:58:46.711Z,6.70
2019-03-27T05:59:46.711Z,6.70
2019-03-27T06:00:46.716Z,6.70
2019-03-27T06:01:46.635Z,6.70
2019-03-27T06:02:46.715Z,6.70
2019-03-27T06:03:46.722Z,6.70
2019-03-27T06:04:46.741Z,6.70
2019-03-27T06:05:46.640Z,7.50
2019-03-27T06:06:46.712Z,7.50
2019-03-27T06:07:46.650Z,7.50
2019-03-27T06:08:46.716Z,7.50
2019-03-27T06:09:46.648Z,7.50
2019-03-27T06:10:46.718Z,7.50
2019-03-27T06:11:46.658Z,7.50
2019-03-27T06:12:46.779Z,7.50
2019-03-27T06:13:46.716Z,7.50
2019-03-27T06:14:46.656Z,7.50
2019-03-27T06:15:46.720Z,8.30
2019-03-27T06:16:46.654Z,8.30
2019-03-27T06:17:46.720Z,8.30
2019-03-27T06:18:46.648Z,8.30
2019-03-27T06:19:46.722Z,8.30
2019-03-27T06:20:46.814Z,8.30
2019-03-27T06:21:46.648Z,8.30
2019-03-27T06:22:46.653Z,8.30
2019-03-27T06:23:46.725Z,8.30
2019-03-27T06:24:46.654Z,8.30
2019-03-27T06:25:46.741Z,7.90
2019-03-27T06:26:46.685Z,7.90
2019-03-27T06:27:46.662Z,7.90
2019-03-27T06:28:46.668Z,7.90
2019-03-27T06:29:46.664Z,7.90
2019-03-27T06:30:46.749Z,7.90
2019-03-27T06:31:46.667Z,7.90
2019-03-27T06:32:46.668Z,7.90
2019-03-27T06:33:46.739Z,7.90
2019-03-27T06:34:46.669Z,7.90
2019-03-27T06:35:46.719Z,7.40
2019-03-27T06:36:46.723Z,7.40
2019-03-27T06:37:46.733Z,7.40
2019-03-27T06:38:46.663Z,7.40
2019-03-27T06:39:46.613Z,7.40
2019-03-27T06:40:46.612Z,7.40
2019-03-27T06:41:46.730Z,7.40
2019-03-27T06:42:46.678Z,7.40
2019-03-27T06:43:46.724Z,7.40
2019-03-27T06:44:46.705Z,7.40
2019-03-27T06:45:46.682Z,6.70
2019-03-27T06:46:46.753Z,6.70
2019-03-27T06:47:46.688Z,6.70
2019-03-27T06:48:46.754Z,6.70
2019-03-27T06:49:46.690Z,6.70
2019-03-27T06:50:46.696Z,6.70
2019-03-27T06:51:46.683Z,6.70
2019-03-27T06:52:46.770Z,6.70
2019-03-27T06:53:46.758Z,6.70
2019-03-27T06:54:46.688Z,6.70
2019-03-27T06:55:46.698Z,8.20
2019-03-27T06:56:46.705Z,8.20
2019-03-27T06:57:46.672Z,8.20
2019-03-27T06:58:54.382Z,8.20
2019-03-27T06:59:46.688Z,8.20
2019-03-27T07:00:46.765Z,8.20
2019-03-27T07:01:46.703Z,8.20
2019-03-27T07:02:46.770Z,8.20
2019-03-27T07:03:46.702Z,8.20
2019-03-27T07:04:46.766Z,8.20
2019-03-27T07:05:46.678Z,8.80
2019-03-27T07:06:46.753Z,8.80
2019-03-27T07:07:46.797Z,8.80
2019-03-27T07:08:46.761Z,8.80
2019-03-27T07:09:46.733Z,8.80
2019-03-27T07:10:46.647Z,8.80
2019-03-27T07:11:46.686Z,8.80
2019-03-27T07:12:46.845Z,8.80
2019-03-27T07:13:46.760Z,8.80
2019-03-27T07:14:46.686Z,8.80
2019-03-27T07:15:46.741Z,8.30
2019-03-27T07:16:46.775Z,8.30
2019-03-27T07:17:46.707Z,8.30
2019-03-27T07:18:46.778Z,8.30
2019-03-27T07:19:46.715Z,8.30
2019-03-27T07:20:46.706Z,8.30
2019-03-27T07:21:46.781Z,8.30
2019-03-27T07:22:46.707Z,8.30
2019-03-27T07:23:46.708Z,8.30
2019-03-27T07:24:46.784Z,8.30
2019-03-27T07:25:46.781Z,8.40
2019-03-27T07:26:46.702Z,8.40
2019-03-27T07:27:46.705Z,8.40
2019-03-27T07:28:46.774Z,8.40
2019-03-27T07:29:46.773Z,8.40
2019-03-27T07:30:46.703Z,8.40
2019-03-27T07:31:46.773Z,8.40
2019-03-27T07:32:46.704Z,8.40
2019-03-27T07:33:46.774Z,8.40
2019-03-27T07:34:46.701Z,8.40
2019-03-27T07:35:46.735Z,8.10
2019-03-27T07:36:46.739Z,8.10
2019-03-27T07:37:46.785Z,8.10
2019-03-27T07:38:46.788Z,8.10
2019-03-27T07:39:46.789Z,8.10
2019-03-27T07:40:46.725Z,8.10
2019-03-27T07:41:46.807Z,8.10
2019-03-27T07:42:46.805Z,8.10
2019-03-27T07:43:46.723Z,8.10
2019-03-27T07:44:46.821Z,8.10
2019-03-27T07:45:46.729Z,7.90
2019-03-27T07:46:46.664Z,7.90
2019-03-27T07:47:48.210Z,7.90
2019-03-27T07:48:53.820Z,7.90
2019-03-27T07:49:46.689Z,7.90
2019-03-27T07:50:46.723Z,7.90
2019-03-27T07:51:46.769Z,7.90
2019-03-27T07:52:46.720Z,7.90
2019-03-27T07:53:46.702Z,7.90
2019-03-27T07:54:46.668Z,7.90
2019-03-27T07:55:46.727Z,9.99
2019-03-27T07:56:46.799Z,9.99
2019-03-27T07:57:46.731Z,9.99
2019-03-27T07:58:46.801Z,9.99
2019-03-27T07:59:46.871Z,9.99
2019-03-27T08:00:46.811Z,9.99
2019-03-27T08:01:46.736Z,9.99
2019-03-27T08:02:46.751Z,9.99
2019-03-27T08:03:46.737Z,9.99
2019-03-27T08:04:46.809Z,9.99
2019-03-27T08:05:46.655Z,8.80
2019-03-27T08:06:46.679Z,8.80
2019-03-27T08:07:46.651Z,8.80
2019-03-27T08:08:46.779Z,8.80
2019-03-27T08:09:46.723Z,8.80
2019-03-27T08:10:46.727Z,8.80
2019-03-27T08:11:46.684Z,8.80
2019-03-27T08:12:46.657Z,8.80
2019-03-27T08:13:46.735Z,8.80
2019-03-27T08:14:46.714Z,8.80
2019-03-27T08:15:46.754Z,9.10
2019-03-27T08:16:46.814Z,9.10
2019-03-27T08:17:46.748Z,9.10
2019-03-27T08:18:46.746Z,9.10
2019-03-27T08:19:46.824Z,9.10
2019-03-27T08:20:46.747Z,9.10
2019-03-27T08:21:46.819Z,9.10
2019-03-27T08:22:46.756Z,9.10
2019-03-27T08:23:46.822Z,9.10
2019-03-27T08:24:46.843Z,9.10
2019-03-27T08:25:46.748Z,9.60
2019-03-27T08:26:46.828Z,9.60
2019-03-27T08:27:46.830Z,9.60
2019-03-27T08:28:46.827Z,9.60
2019-03-27T08:29:46.831Z,9.60
2019-03-27T08:30:46.759Z,9.60
2019-03-27T08:31:46.824Z,9.60
2019-03-27T08:32:46.944Z,9.60
2019-03-27T08:33:46.825Z,9.60
2019-03-27T08:34:46.830Z,9.60
2019-03-27T08:35:46.807Z,9.90
2019-03-27T08:36:46.736Z,9.90
2019-03-27T08:37:46.785Z,9.90
2019-03-27T08:38:46.719Z,9.90
2019-03-27T08:39:46.821Z,9.90
2019-03-27T08:40:46.729Z,9.90
2019-03-27T08:41:46.760Z,9.90
2019-03-27T08:42:46.817Z,9.90
2019-03-27T08:43:46.817Z,9.90
2019-03-27T08:44:46.703Z,9.90
2019-03-27T08:45:46.725Z,8.50
2019-03-27T08:46:46.853Z,8.50
2019-03-27T08:47:46.840Z,8.50
2019-03-27T08:48:46.768Z,8.50
2019-03-27T08:49:46.837Z,8.50
2019-03-27T08:50:46.837Z,8.50
2019-03-27T08:51:46.846Z,8.50
2019-03-27T08:52:46.781Z,8.50
2019-03-27T08:53:46.770Z,8.50
2019-03-27T08:54:46.775Z,8.50
2019-03-27T08:55:46.733Z,8.50
2019-03-27T08:56:46.812Z,8.70
2019-03-27T08:57:46.776Z,8.70
2019-03-27T08:58:46.772Z,8.70
2019-03-27T08:59:46.781Z,8.70
2019-03-27T09:00:46.733Z,8.70
2019-03-27T09:01:46.788Z,8.70
2019-03-27T09:02:46.783Z,8.70
2019-03-27T09:03:46.775Z,8.70
2019-03-27T09:04:46.739Z,8.70
2019-03-27T09:05:46.781Z,8.70
2019-03-27T09:06:46.774Z,7.50
2019-03-27T09:07:46.823Z,7.50
2019-03-27T09:08:46.846Z,7.50
2019-03-27T09:09:46.772Z,7.50
2019-03-27T09:10:46.841Z,7.50
2019-03-27T09:11:46.833Z,7.50
2019-03-27T09:12:46.773Z,7.50
2019-03-27T09:13:46.753Z,7.50
2019-03-27T09:14:46.753Z,7.50
2019-03-27T09:15:46.794Z,7.50
2019-03-27T09:16:46.862Z,7.60
2019-03-27T09:17:46.860Z,7.60
2019-03-27T09:18:46.806Z,7.60
2019-03-27T09:19:46.790Z,7.60
2019-03-27T09:20:46.871Z,7.60
2019-03-27T09:21:46.862Z,7.60
2019-03-27T09:22:46.865Z,7.60
2019-03-27T09:23:46.809Z,7.60
2019-03-27T09:24:46.874Z,7.60
2019-03-27T09:25:46.863Z,7.60
2019-03-27T09:26:46.826Z,8.10
2019-03-27T09:27:46.869Z,8.10
2019-03-27T09:28:46.798Z,8.10
2019-03-27T09:29:46.858Z,8.10
2019-03-27T09:30:46.847Z,8.10
2019-03-27T09:31:46.867Z,8.10
2019-03-27T09:32:46.869Z,8.10
2019-03-27T09:33:46.870Z,8.10
2019-03-27T09:34:46.858Z,8.10
2019-03-27T09:35:46.828Z,8.10
2019-03-27T09:36:46.804Z,8.20
2019-03-27T09:37:46.869Z,8.20
2019-03-27T09:38:46.764Z,8.20
2019-03-27T09:39:46.873Z,8.20
2019-03-27T09:40:46.806Z,8.20
2019-03-27T09:41:46.803Z,8.20
2019-03-27T09:42:46.884Z,8.20
2019-03-27T09:43:46.876Z,8.20
2019-03-27T09:44:46.877Z,8.20
2019-03-27T09:45:46.828Z,8.20
2019-03-27T09:46:46.795Z,7.90
2019-03-27T09:47:46.868Z,7.90
2019-03-27T09:48:46.871Z,7.90
2019-03-27T09:49:49.954Z,7.90
2019-03-27T09:50:46.905Z,7.90
2019-03-27T09:51:46.806Z,7.90
2019-03-27T09:52:46.798Z,7.90
2019-03-27T09:53:46.801Z,7.90
2019-03-27T09:54:46.874Z,7.90
2019-03-27T09:55:46.801Z,7.90
2019-03-27T09:56:46.829Z,7.60
2019-03-27T09:57:46.818Z,7.60
2019-03-27T09:58:46.893Z,7.60
2019-03-27T09:59:46.887Z,7.60
2019-03-27T10:00:46.930Z,7.60
2019-03-27T10:01:46.832Z,7.60
2019-03-27T10:02:46.903Z,7.60
2019-03-27T10:03:46.854Z,7.60
2019-03-27T10:04:46.825Z,7.60
2019-03-27T10:05:46.892Z,7.60
2019-03-27T10:06:46.884Z,9.00
2019-03-27T10:07:46.816Z,9.00
2019-03-27T10:08:46.885Z,9.00
2019-03-27T10:09:50.121Z,9.00
2019-03-27T10:10:46.898Z,9.00
2019-03-27T10:11:46.812Z,9.00
2019-03-27T10:12:46.885Z,9.00
2019-03-27T10:13:46.827Z,9.00
2019-03-27T10:14:47.751Z,9.00
2019-03-27T10:15:46.915Z,9.00
2019-03-27T10:16:46.877Z,9.00
2019-03-27T10:17:46.788Z,9.00
2019-03-27T10:18:47.620Z,9.00
2019-03-27T10:19:46.820Z,9.00
2019-03-27T10:20:46.768Z,9.00
2019-03-27T10:21:46.802Z,9.00
2019-03-27T10:22:46.858Z,9.00
2019-03-27T10:23:46.808Z,9.00
2019-03-27T10:24:46.773Z,9.00
2019-03-27T10:25:46.927Z,9.00
2019-03-27T10:26:46.837Z,7.20
2019-03-27T10:27:46.907Z,7.20
2019-03-27T10:28:46.911Z,7.20
2019-03-27T10:29:46.918Z,7.20
2019-03-27T10:30:46.837Z,7.20
2019-03-27T10:31:46.842Z,7.20
2019-03-27T10:32:46.842Z,7.20
2019-03-27T10:33:46.912Z,7.20
2019-03-27T10:34:46.923Z,7.20
2019-03-27T10:35:46.846Z,7.20
2019-03-27T10:36:46.886Z,6.30
2019-03-27T10:37:46.881Z,6.30
2019-03-27T10:38:46.800Z,6.30
2019-03-27T10:39:46.906Z,6.30
2019-03-27T10:40:46.908Z,6.30
2019-03-27T10:41:46.810Z,6.30
2019-03-27T10:42:46.785Z,6.30
2019-03-27T10:43:46.815Z,6.30
2019-03-27T10:44:46.778Z,6.30
2019-03-27T10:45:46.840Z,6.30
2019-03-27T10:46:46.928Z,6.20
2019-03-27T10:47:46.879Z,6.20
2019-03-27T10:48:52.954Z,6.20
2019-03-27T10:49:46.914Z,6.20
2019-03-27T10:50:46.883Z,6.20
2019-03-27T10:51:46.877Z,6.20
2019-03-27T10:52:46.927Z,6.20
2019-03-27T10:53:46.931Z,6.20
2019-03-27T10:54:46.928Z,6.20
2019-03-27T10:55:46.983Z,6.20
2019-03-27T10:56:46.899Z,6.00
2019-03-27T10:57:46.785Z,6.00
2019-03-27T10:58:46.881Z,6.00
2019-03-27T10:59:46.787Z,6.00
2019-03-27T11:00:46.862Z,6.00
2019-03-27T11:01:46.908Z,6.00
2019-03-27T11:02:46.882Z,6.00
2019-03-27T11:03:46.847Z,6.00
2019-03-27T11:04:46.880Z,6.00
2019-03-27T11:05:46.886Z,6.00
2019-03-27T11:06:46.933Z,6.30
2019-03-27T11:07:46.860Z,6.30
2019-03-27T11:08:46.926Z,6.30
2019-03-27T11:09:46.929Z,6.30
2019-03-27T11:10:46.894Z,6.30
2019-03-27T11:11:46.940Z,6.30
2019-03-27T11:12:46.862Z,6.30
2019-03-27T11:13:46.933Z,6.30
2019-03-27T11:14:46.842Z,6.30
2019-03-27T11:15:46.977Z,6.30
2019-03-27T11:16:46.946Z,4.90
2019-03-27T11:17:46.882Z,4.90
2019-03-27T11:18:46.950Z,4.90
2019-03-27T11:19:46.876Z,4.90
2019-03-27T11:20:46.874Z,4.90
2019-03-27T11:21:46.954Z,4.90
2019-03-27T11:23:46.880Z,4.90
2019-03-27T11:24:46.982Z,4.90
2019-03-27T11:25:46.951Z,4.90
2019-03-27T11:26:46.850Z,4.60
2019-03-27T11:27:46.852Z,4.60
2019-03-27T11:28:46.867Z,4.60
2019-03-27T11:29:46.855Z,4.60
2019-03-27T11:30:48.568Z,4.60
2019-03-27T11:31:46.971Z,4.60
2019-03-27T11:32:46.939Z,4.60
2019-03-27T11:33:46.948Z,4.60
2019-03-27T11:34:46.873Z,4.60
2019-03-27T11:35:46.868Z,4.60
2019-03-27T11:36:46.827Z,4.70
2019-03-27T11:37:46.938Z,4.70
2019-03-27T11:38:46.862Z,4.70
2019-03-27T11:39:46.902Z,4.70
2019-03-27T11:40:46.952Z,4.70
2019-03-27T11:41:46.875Z,4.70
2019-03-27T11:42:46.921Z,4.70
2019-03-27T11:43:54.627Z,4.70
2019-03-27T11:44:46.959Z,4.70
2019-03-27T11:45:48.749Z,4.70
2019-03-27T11:46:46.924Z,4.40
2019-03-27T11:47:46.834Z,4.40
2019-03-27T11:48:46.961Z,4.40
2019-03-27T11:49:46.902Z,4.40
2019-03-27T11:50:46.842Z,4.40
2019-03-27T11:51:46.853Z,4.40
2019-03-27T11:52:46.957Z,4.40
2019-03-27T11:53:46.855Z,4.40
2019-03-27T11:54:46.832Z,4.40
2019-03-27T11:55:46.945Z,4.40
2019-03-27T11:56:47.014Z,3.10
2019-03-27T11:57:46.898Z,3.10
2019-03-27T11:58:46.902Z,3.10
2019-03-27T11:59:53.943Z,3.10
2019-03-27T12:00:54.386Z,3.10
2019-03-27T12:01:46.900Z,3.10
2019-03-27T12:02:46.973Z,3.10
2019-03-27T12:03:46.977Z,3.10
2019-03-27T12:04:46.979Z,3.10
2019-03-27T12:05:46.909Z,3.10
2019-03-27T12:06:46.983Z,4.99
2019-03-27T12:07:46.910Z,4.99
2019-03-27T12:08:46.907Z,4.99
2019-03-27T12:09:46.912Z,4.99
2019-03-27T12:10:46.976Z,4.99
2019-03-27T12:11:46.992Z,4.99
2019-03-27T12:12:48.327Z,4.99
2019-03-27T12:13:46.983Z,4.99
2019-03-27T12:14:46.983Z,4.99
2019-03-27T12:15:46.980Z,4.99
2019-03-27T12:16:49.843Z,4.00
2019-03-27T12:17:46.910Z,4.00
2019-03-27T12:18:46.902Z,4.00
2019-03-27T12:19:46.937Z,4.00
2019-03-27T12:20:58.322Z,4.00
2019-03-27T12:21:46.848Z,4.00
2019-03-27T12:22:57.301Z,4.00
2019-03-27T12:23:46.853Z,4.00
2019-03-27T12:24:46.907Z,4.00
2019-03-27T12:25:46.939Z,4.00
2019-03-27T12:26:46.934Z,4.30
2019-03-27T12:27:46.990Z,4.30
2019-03-27T12:28:47.001Z,4.30
2019-03-27T12:29:46.936Z,4.30
2019-03-27T12:30:46.961Z,4.30
2019-03-27T12:31:46.994Z,4.30
2019-03-27T12:32:46.993Z,4.30
2019-03-27T12:33:47.001Z,4.30
2019-03-27T12:34:47.001Z,4.30
2019-03-27T12:35:46.993Z,4.30
2019-03-27T12:36:46.953Z,3.20
2019-03-27T12:37:46.995Z,3.20
2019-03-27T12:38:46.918Z,3.20
2019-03-27T12:39:46.995Z,3.20
2019-03-27T12:40:46.921Z,3.20
2019-03-27T12:41:46.992Z,3.20
2019-03-27T12:42:46.989Z,3.20
2019-03-27T12:43:46.907Z,3.20
2019-03-27T12:44:46.997Z,3.20
2019-03-27T12:45:46.996Z,3.20
2019-03-27T12:46:46.952Z,3.20
2019-03-27T12:47:46.863Z,3.20
2019-03-27T12:48:46.899Z,3.20
2019-03-27T12:49:46.940Z,3.20
2019-03-27T12:50:46.933Z,3.20
2019-03-27T12:51:46.954Z,3.20
2019-03-27T12:52:46.961Z,3.20
2019-03-27T12:53:46.955Z,3.20
2019-03-27T12:54:46.872Z,3.20
2019-03-27T12:55:47.061Z,3.20
2019-03-27T12:56:47.014Z,3.60
2019-03-27T12:57:46.945Z,3.60
2019-03-27T12:58:47.011Z,3.60
2019-03-27T12:59:47.015Z,3.60
2019-03-27T13:00:47.017Z,3.60
2019-03-27T13:01:46.950Z,3.60
2019-03-27T13:02:46.944Z,3.60
2019-03-27T13:03:47.017Z,3.60
2019-03-27T13:04:46.951Z,3.60
2019-03-27T13:05:47.019Z,3.60
2019-03-27T13:06:46.949Z,3.60
2019-03-27T13:07:50.141Z,3.60
2019-03-27T13:08:49.456Z,3.60
2019-03-27T13:09:46.960Z,3.60
2019-03-27T13:10:47.022Z,3.60
2019-03-27T13:11:46.969Z,3.60
2019-03-27T13:12:46.980Z,3.60
2019-03-27T13:13:47.023Z,3.60
2019-03-27T13:14:46.963Z,3.60
2019-03-27T13:15:46.921Z,3.60
2019-03-27T13:16:46.954Z,3.50
2019-03-27T13:17:46.963Z,3.50
2019-03-27T13:18:47.029Z,3.50
2019-03-27T13:19:47.034Z,3.50
2019-03-27T13:20:46.971Z,3.50